createdAt,value
2018-01-10T00:01:02.546Z,6.32
2018-01-10T00:03:30.122Z,6.42
2018-01-10T00:05:57.686Z,6.47
2018-01-10T00:08:25.303Z,6.45
2018-01-10T00:10:52.869Z,6.47
2018-01-10T00:13:20.431Z,6.48
2018-01-10T00:15:48.014Z,6.47
2018-01-10T00:18:15.574Z,6.35
2018-01-10T00:20:43.307Z,6.40
2018-01-10T00:23:11.031Z,6.39
2018-01-10T00:25:38.641Z,6.34
2018-01-10T00:28:06.467Z,6.32
2018-01-10T00:30:34.286Z,6.35
2018-01-10T00:33:02.105Z,6.40
2018-01-10T00:35:29.671Z,6.48
2018-01-10T00:37:57.440Z,6.55
2018-01-10T00:40:25.022Z,6.60
2018-01-10T00:42:52.745Z,6.63
2018-01-10T00:45:20.385Z,6.60
2018-01-10T00:47:48.005Z,6.59
2018-01-10T00:50:15.731Z,6.68
2018-01-10T00:52:43.335Z,6.73
2018-01-10T00:55:10.891Z,6.77
2018-01-10T00:57:38.687Z,6.83
2018-01-10T01:00:06.274Z,6.88
2018-01-10T01:02:34.024Z,6.85
2018-01-10T01:05:01.594Z,6.82
2018-01-10T01:07:29.158Z,6.86
2018-01-10T01:09:56.866Z,6.73
2018-01-10T01:12:24.430Z,6.73
2018-01-10T01:14:52.211Z,6.68
2018-01-10T01:17:19.871Z,6.64
2018-01-10T01:19:47.448Z,6.64
2018-01-10T01:22:15.266Z,6.56
2018-01-10T01:24:42.823Z,6.60
2018-01-10T01:27:10.495Z,6.64
2018-01-10T01:29:38.321Z,6.68
2018-01-10T01:32:06.139Z,6.75
2018-01-10T01:34:34.061Z,6.82
2018-01-10T01:37:01.655Z,6.81
2018-01-10T01:39:29.284Z,6.82
2018-01-10T01:41:56.862Z,6.81
2018-01-10T01:44:24.628Z,6.84
2018-01-10T01:46:52.277Z,6.82
2018-01-10T01:49:19.863Z,6.74
2018-01-10T01:51:47.458Z,6.64
2018-01-10T01:54:15.169Z,6.72
2018-01-10T01:56:42.740Z,6.59
2018-01-10T01:59:10.486Z,6.51
2018-01-10T02:01:38.256Z,6.42
2018-01-10T02:04:06.074Z,6.34
2018-01-10T02:06:33.649Z,6.26
2018-01-10T02:09:01.235Z,6.13
2018-01-10T02:11:29.039Z,5.99
2018-01-10T02:13:56.602Z,6.01
2018-01-10T02:16:24.255Z,6.02
2018-01-10T02:18:51.822Z,6.06
2018-01-10T02:21:19.391Z,6.07
2018-01-10T02:23:47.011Z,6.12
2018-01-10T02:26:14.575Z,6.14
2018-01-10T02:28:42.178Z,6.11
2018-01-10T02:31:09.850Z,5.98
2018-01-10T02:33:37.590Z,5.71
2018-01-10T02:36:05.214Z,5.76
2018-01-10T02:38:32.782Z,5.87
2018-01-10T02:41:00.530Z,5.89
2018-01-10T02:43:28.362Z,5.75
2018-01-10T02:45:55.945Z,5.61
2018-01-10T02:48:23.577Z,5.58
2018-01-10T02:50:51.295Z,5.55
2018-01-10T02:53:19.034Z,5.67
2018-01-10T02:55:46.606Z,5.61
2018-01-10T02:58:14.346Z,5.40
2018-01-10T03:00:42.041Z,5.31
2018-01-10T03:03:09.650Z,5.27
2018-01-10T03:05:37.226Z,5.25
2018-01-10T03:08:05.043Z,5.16
2018-01-10T03:10:32.639Z,5.21
2018-01-10T03:13:00.239Z,5.17
2018-01-10T03:15:27.802Z,5.13
2018-01-10T03:17:55.616Z,5.07
2018-01-10T03:20:23.187Z,4.98
2018-01-10T03:22:50.952Z,5.00
2018-01-10T03:25:18.639Z,5.10
2018-01-10T03:27:46.206Z,5.10
2018-01-10T03:30:13.795Z,5.07
2018-01-10T03:32:41.628Z,5.08
2018-01-10T03:35:09.441Z,5.10
2018-01-10T03:37:37.360Z,5.07
2018-01-10T03:40:04.930Z,5.06
2018-01-10T03:42:32.502Z,5.07
2018-01-10T03:45:00.314Z,5.04
2018-01-10T03:47:28.135Z,5.01
2018-01-10T03:49:55.774Z,5.03
2018-01-10T03:52:23.347Z,5.03
2018-01-10T03:54:51.089Z,4.99
2018-01-10T03:57:18.906Z,4.97
2018-01-10T03:59:46.724Z,4.89
2018-01-10T04:02:14.342Z,4.91
2018-01-10T04:04:41.918Z,4.91
2018-01-10T04:07:09.522Z,4.93
2018-01-10T04:09:37.187Z,4.92
2018-01-10T04:12:04.763Z,4.92
2018-01-10T04:14:32.422Z,4.92
2018-01-10T04:16:59.987Z,4.91
2018-01-10T04:19:27.550Z,4.94
2018-01-10T04:21:55.178Z,4.90
2018-01-10T04:24:22.782Z,4.86
2018-01-10T04:26:50.704Z,4.82
2018-01-10T04:29:18.315Z,4.73
2018-01-10T04:31:45.871Z,4.72
2018-01-10T04:34:13.449Z,4.70
2018-01-10T04:36:41.011Z,4.69
2018-01-10T04:39:08.646Z,4.65
2018-01-10T04:41:36.233Z,4.64
2018-01-10T04:44:03.861Z,4.60
2018-01-10T04:46:31.668Z,4.55
2018-01-10T04:48:59.230Z,4.52
2018-01-10T04:51:26.993Z,4.49
2018-01-10T04:53:54.562Z,4.43
2018-01-10T04:56:22.126Z,4.48
2018-01-10T04:58:49.940Z,4.48
2018-01-10T05:01:17.667Z,4.50
2018-01-10T05:03:45.342Z,4.45
2018-01-10T05:06:12.917Z,4.34
2018-01-10T05:08:40.479Z,4.34
2018-01-10T05:11:08.053Z,4.34
2018-01-10T05:13:35.884Z,4.41
2018-01-10T05:16:03.653Z,4.41
2018-01-10T05:18:31.369Z,4.46
2018-01-10T05:20:58.923Z,4.42
2018-01-10T05:23:26.495Z,4.43
2018-01-10T05:25:54.063Z,4.40
2018-01-10T05:28:21.791Z,4.45
2018-01-10T05:30:49.353Z,4.40
2018-01-10T05:33:16.910Z,4.43
2018-01-10T05:35:44.725Z,4.52
2018-01-10T05:38:12.286Z,4.55
2018-01-10T05:40:39.911Z,4.55
2018-01-10T05:43:07.561Z,4.62
2018-01-10T05:45:35.222Z,4.61
2018-01-10T05:48:02.806Z,4.62
2018-01-10T05:50:30.414Z,4.65
2018-01-10T05:52:58.110Z,4.66
2018-01-10T05:55:25.869Z,4.66
2018-01-10T05:57:53.433Z,4.60
2018-01-10T06:00:21.170Z,4.54
2018-01-10T06:02:48.815Z,4.54
2018-01-10T06:05:16.643Z,4.51
2018-01-10T06:07:44.207Z,4.54
2018-01-10T06:10:11.782Z,4.51
2018-01-10T06:12:39.358Z,4.52
2018-01-10T06:15:06.959Z,4.54
2018-01-10T06:17:34.597Z,4.62
2018-01-10T06:20:02.241Z,4.65
2018-01-10T06:22:29.806Z,4.71
2018-01-10T06:24:57.381Z,4.77
2018-01-10T06:27:25.103Z,4.83
2018-01-10T06:29:52.916Z,4.79
2018-01-10T06:32:20.530Z,4.79
2018-01-10T06:34:48.224Z,4.85
2018-01-10T06:37:15.802Z,4.88
2018-01-10T06:39:43.593Z,4.78
2018-01-10T06:42:11.305Z,4.81
2018-01-10T06:44:38.958Z,4.77
2018-01-10T06:47:06.762Z,4.86
2018-01-10T06:49:34.356Z,4.91
2018-01-10T06:52:01.918Z,4.94
2018-01-10T06:54:29.589Z,5.04
2018-01-10T06:56:57.164Z,5.11
2018-01-10T06:59:25.054Z,5.13
2018-01-10T07:01:52.667Z,5.16
2018-01-10T07:04:20.479Z,5.16
2018-01-10T07:06:48.086Z,5.16
2018-01-10T07:09:15.654Z,5.18
2018-01-10T07:11:43.428Z,5.17
2018-01-10T07:14:11.248Z,5.22
2018-01-10T07:16:38.828Z,5.23
2018-01-10T07:19:07.135Z,5.15
2018-01-10T07:21:34.980Z,5.09
2018-01-10T07:24:02.541Z,5.15
2018-01-10T07:26:30.317Z,5.13
2018-01-10T07:28:57.927Z,5.16
2018-01-10T07:31:25.908Z,5.08
2018-01-10T07:33:53.458Z,5.13
2018-01-10T07:36:21.030Z,5.15
2018-01-10T07:38:48.605Z,5.19
2018-01-10T07:41:16.181Z,5.23
2018-01-10T07:43:43.894Z,5.27
2018-01-10T07:46:11.461Z,5.35
2018-01-10T07:48:39.290Z,5.36
2018-01-10T07:51:06.890Z,5.42
2018-01-10T07:53:34.454Z,5.43
2018-01-10T07:56:02.051Z,5.48
2018-01-10T07:58:29.617Z,5.56
2018-01-10T08:00:57.181Z,5.50
2018-01-10T08:03:24.878Z,5.44
2018-01-10T08:05:52.573Z,5.39
2018-01-10T08:08:20.208Z,5.66
2018-01-10T08:10:47.778Z,5.87
2018-01-10T08:13:15.338Z,6.11
2018-01-10T08:15:43.671Z,6.29
2018-01-10T08:18:12.386Z,6.31
2018-01-10T08:20:40.372Z,6.65
2018-01-10T08:23:07.928Z,6.88
2018-01-10T08:25:35.656Z,7.02
2018-01-10T08:28:03.264Z,7.05
2018-01-10T08:30:30.985Z,7.04
2018-01-10T08:32:58.663Z,7.04
2018-01-10T08:35:26.238Z,7.12
2018-01-10T08:37:53.823Z,7.31
2018-01-10T08:40:21.402Z,7.41
2018-01-10T08:42:49.799Z,7.44
2018-01-10T08:45:17.804Z,7.36
2018-01-10T08:47:45.347Z,7.30
2018-01-10T08:50:12.906Z,7.29
2018-01-10T08:52:40.513Z,7.36
2018-01-10T08:55:08.248Z,7.36
2018-01-10T08:57:35.866Z,7.36
2018-01-10T09:00:03.712Z,7.37
2018-01-10T09:02:31.430Z,7.44
2018-01-10T09:04:59.020Z,7.48
2018-01-10T09:07:26.586Z,7.46
2018-01-10T09:09:54.383Z,7.51
2018-01-10T09:12:21.993Z,7.55
2018-01-10T09:14:49.573Z,7.62
2018-01-10T09:17:17.150Z,7.69
2018-01-10T09:19:44.710Z,7.70
2018-01-10T09:22:12.330Z,7.66
2018-01-10T09:24:40.069Z,7.64
2018-01-10T09:27:07.686Z,7.60
2018-01-10T09:29:35.262Z,7.57
2018-01-10T09:32:03.021Z,7.50
2018-01-10T09:34:30.875Z,7.51
2018-01-10T09:36:58.682Z,7.37
2018-01-10T09:39:26.251Z,7.24
2018-01-10T09:41:53.984Z,7.21
2018-01-10T09:44:21.545Z,7.24
2018-01-10T09:46:49.171Z,7.31
2018-01-10T09:49:16.754Z,7.44
2018-01-10T09:51:44.318Z,7.46
2018-01-10T09:54:11.926Z,7.58
2018-01-10T09:56:39.485Z,7.68
2018-01-10T09:59:07.124Z,7.65
2018-01-10T10:01:34.702Z,7.66
2018-01-10T10:04:02.501Z,7.78
2018-01-10T10:06:30.066Z,7.86
2018-01-10T10:08:57.814Z,7.96
2018-01-10T10:11:25.443Z,7.79
2018-01-10T10:13:53.252Z,7.77
2018-01-10T10:16:20.868Z,7.83
2018-01-10T10:18:48.438Z,7.83
2018-01-10T10:21:16.205Z,7.79
2018-01-10T10:23:44.125Z,7.76
2018-01-10T10:26:11.699Z,7.63
2018-01-10T10:28:39.270Z,7.56
2018-01-10T10:31:07.079Z,7.36
2018-01-10T10:33:34.639Z,7.27
2018-01-10T10:36:02.367Z,7.01
2018-01-10T10:38:30.134Z,6.99
2018-01-10T10:40:57.852Z,6.99
2018-01-10T10:43:25.418Z,7.11
2018-01-10T10:45:53.076Z,7.11
2018-01-10T10:48:20.702Z,7.09
2018-01-10T10:50:48.423Z,7.07
2018-01-10T10:53:16.241Z,7.11
2018-01-10T10:55:44.061Z,7.19
2018-01-10T10:58:12.502Z,7.19
2018-01-10T11:00:40.191Z,7.29
2018-01-10T11:03:07.811Z,7.23
2018-01-10T11:05:35.536Z,7.13
2018-01-10T11:08:03.134Z,7.09
2018-01-10T11:10:30.844Z,7.06
2018-01-10T11:12:58.534Z,7.04
2018-01-10T11:15:26.199Z,7.04
2018-01-10T11:17:53.926Z,7.08
2018-01-10T11:20:21.744Z,7.06
2018-01-10T11:22:49.446Z,6.94
2018-01-10T11:25:17.129Z,6.91
2018-01-10T11:27:44.768Z,6.87
2018-01-10T11:30:12.328Z,6.91
2018-01-10T11:32:39.904Z,6.97
2018-01-10T11:35:07.476Z,6.96
2018-01-10T11:37:35.143Z,6.95
2018-01-10T11:40:02.709Z,6.94
2018-01-10T11:42:30.279Z,6.92
2018-01-10T11:44:57.869Z,6.84
2018-01-10T11:47:25.433Z,6.99
2018-01-10T11:49:53.049Z,6.99
2018-01-10T11:52:20.620Z,7.06
2018-01-10T11:54:48.396Z,7.18
2018-01-10T11:57:16.003Z,7.22
2018-01-10T11:59:43.621Z,7.25
2018-01-10T12:02:11.298Z,7.39
2018-01-10T12:04:38.860Z,7.48
2018-01-10T12:07:06.506Z,7.38
2018-01-10T12:09:34.088Z,7.37
2018-01-10T12:12:01.655Z,7.37
2018-01-10T12:14:29.332Z,7.47
2018-01-10T12:16:56.905Z,7.51
2018-01-10T12:19:24.466Z,7.44
2018-01-10T12:21:52.076Z,7.46
2018-01-10T12:24:19.809Z,7.41
2018-01-10T12:26:47.440Z,7.34
2018-01-10T12:29:15.247Z,7.27
2018-01-10T12:31:42.822Z,7.24
2018-01-10T12:34:10.375Z,7.22
2018-01-10T12:36:38.802Z,7.25
2018-01-10T12:39:06.414Z,7.13
2018-01-10T12:41:34.240Z,7.01
2018-01-10T12:44:01.803Z,7.00
2018-01-10T12:46:29.490Z,7.00
2018-01-10T12:48:57.284Z,6.89
2018-01-10T12:51:24.910Z,6.86
2018-01-10T12:53:52.555Z,6.87
2018-01-10T12:56:20.109Z,6.98
2018-01-10T12:58:47.689Z,7.06
2018-01-10T13:01:15.362Z,7.17
2018-01-10T13:03:42.990Z,7.13
2018-01-10T13:06:10.718Z,7.14
2018-01-10T13:08:38.330Z,7.13
2018-01-10T13:11:05.934Z,7.15
2018-01-10T13:13:33.983Z,7.18
2018-01-10T13:16:01.615Z,7.21
2018-01-10T13:18:29.179Z,7.19
2018-01-10T13:20:56.759Z,7.24
2018-01-10T13:23:24.567Z,7.16
2018-01-10T13:25:52.141Z,7.02
2018-01-10T13:28:19.771Z,7.06
2018-01-10T13:30:47.510Z,7.07
2018-01-10T13:33:15.090Z,6.93
2018-01-10T13:35:42.669Z,6.89
2018-01-10T13:38:10.452Z,6.89
2018-01-10T13:40:38.094Z,6.84
2018-01-10T13:43:05.682Z,6.86
2018-01-10T13:45:33.318Z,6.79
2018-01-10T13:48:01.125Z,6.78
2018-01-10T13:50:28.944Z,6.62
2018-01-10T13:52:56.762Z,6.59
2018-01-10T13:55:24.362Z,6.52
2018-01-10T13:57:51.992Z,6.55
2018-01-10T14:00:19.574Z,6.55
2018-01-10T14:02:47.175Z,6.51
2018-01-10T14:05:15.053Z,6.51
2018-01-10T14:07:42.614Z,6.57
2018-01-10T14:10:10.174Z,6.60
2018-01-10T14:12:37.767Z,6.59
2018-01-10T14:15:05.491Z,6.51
2018-01-10T14:17:33.256Z,6.61
2018-01-10T14:20:00.797Z,6.65
2018-01-10T14:22:28.545Z,6.70
2018-01-10T14:24:56.121Z,6.71
2018-01-10T14:27:23.722Z,6.82
2018-01-10T14:29:51.357Z,6.81
2018-01-10T14:32:19.047Z,6.80
2018-01-10T14:34:46.596Z,6.74
2018-01-10T14:37:14.182Z,6.67
2018-01-10T14:39:41.799Z,6.55
2018-01-10T14:42:09.424Z,6.42
2018-01-10T14:44:37.240Z,6.36
2018-01-10T14:47:05.058Z,6.34
2018-01-10T14:49:32.654Z,6.26
2018-01-10T14:52:00.214Z,6.15
2018-01-10T14:54:28.112Z,6.10
2018-01-10T14:56:55.833Z,6.01
2018-01-10T14:59:23.406Z,6.00
2018-01-10T15:01:50.990Z,5.98
2018-01-10T15:04:18.767Z,6.03
2018-01-10T15:06:46.619Z,6.01
2018-01-10T15:09:14.221Z,6.02
2018-01-10T15:11:41.831Z,6.06
2018-01-10T15:14:09.658Z,6.11
2018-01-10T15:16:37.473Z,6.16
2018-01-10T15:19:05.151Z,6.20
2018-01-10T15:21:32.725Z,6.19
2018-01-10T15:24:00.424Z,6.20
2018-01-10T15:26:27.974Z,6.22
2018-01-10T15:28:55.769Z,6.20
2018-01-10T15:31:23.420Z,6.23
2018-01-10T15:33:50.991Z,6.20
2018-01-10T15:36:18.613Z,6.21
2018-01-10T15:38:46.339Z,6.25
2018-01-10T15:41:13.949Z,6.21
2018-01-10T15:43:41.573Z,6.25
2018-01-10T15:46:09.293Z,6.24
2018-01-10T15:48:37.010Z,6.21
2018-01-10T15:51:04.828Z,6.17
2018-01-10T15:53:32.647Z,6.25
2018-01-10T15:56:00.270Z,6.28
2018-01-10T15:58:27.846Z,6.23
2018-01-10T16:00:55.415Z,6.25
2018-01-10T16:03:22.989Z,6.23
2018-01-10T16:05:50.556Z,6.26
2018-01-10T16:08:18.239Z,6.20
2018-01-10T16:10:45.818Z,6.20
2018-01-10T16:13:13.574Z,6.23
2018-01-10T16:15:41.150Z,6.21
2018-01-10T16:18:08.906Z,6.17
2018-01-10T16:20:36.658Z,6.21
2018-01-10T16:23:04.217Z,6.21
2018-01-10T16:25:31.981Z,6.19
2018-01-10T16:27:59.800Z,6.19
2018-01-10T16:30:27.519Z,6.16
2018-01-10T16:32:55.337Z,6.01
2018-01-10T16:35:22.944Z,6.02
2018-01-10T16:37:50.515Z,6.06
2018-01-10T16:40:18.290Z,6.06
2018-01-10T16:42:46.010Z,6.00
2018-01-10T16:45:13.655Z,5.97
2018-01-10T16:47:41.427Z,5.96
2018-01-10T16:50:09.143Z,5.93
2018-01-10T16:52:36.714Z,5.94
2018-01-10T16:55:04.303Z,6.00
2018-01-10T16:57:32.384Z,6.07
2018-01-10T17:00:00.032Z,6.04
2018-01-10T17:02:27.646Z,6.05
2018-01-10T17:04:55.226Z,5.95
2018-01-10T17:07:22.781Z,5.96
2018-01-10T17:09:50.390Z,5.88
2018-01-10T17:12:17.945Z,5.89
2018-01-10T17:14:46.647Z,5.87
2018-01-10T17:17:14.466Z,5.87
2018-01-10T17:19:42.026Z,5.85
2018-01-10T17:22:09.780Z,5.88
2018-01-10T17:24:37.411Z,5.92
2018-01-10T17:27:05.031Z,5.91
2018-01-10T17:29:32.616Z,5.86
2018-01-10T17:32:00.380Z,5.89
2018-01-10T17:34:28.083Z,5.95
2018-01-10T17:36:55.777Z,6.00
2018-01-10T17:39:23.385Z,5.95
2018-01-10T17:41:50.941Z,5.93
2018-01-10T17:44:18.506Z,5.89
2018-01-10T17:46:46.173Z,5.88
2018-01-10T17:49:13.822Z,5.85
2018-01-10T17:51:41.498Z,5.84
2018-01-10T17:54:09.218Z,5.89
2018-01-10T17:56:36.790Z,5.92
2018-01-10T17:59:04.671Z,5.88
2018-01-10T18:01:32.490Z,5.79
2018-01-10T18:04:00.053Z,5.75
2018-01-10T18:06:27.628Z,5.75
2018-01-10T18:08:55.189Z,5.71
2018-01-10T18:11:22.822Z,5.76
2018-01-10T18:13:50.390Z,5.77
2018-01-10T18:16:18.198Z,5.81
2018-01-10T18:18:45.781Z,5.85
2018-01-10T18:21:13.348Z,5.85
2018-01-10T18:23:40.984Z,5.90
2018-01-10T18:26:08.569Z,5.94
2018-01-10T18:28:36.136Z,5.97
2018-01-10T18:31:03.705Z,5.99
2018-01-10T18:33:31.300Z,5.97
2018-01-10T18:35:59.144Z,5.96
2018-01-10T18:38:26.719Z,5.86
2018-01-10T18:40:54.337Z,5.88
2018-01-10T18:43:22.102Z,5.71
2018-01-10T18:45:49.765Z,5.65
2018-01-10T18:48:17.409Z,5.56
2018-01-10T18:50:44.974Z,5.52
2018-01-10T18:53:12.556Z,5.55
2018-01-10T18:55:40.385Z,5.61
2018-01-10T18:58:08.105Z,5.68
2018-01-10T19:00:35.730Z,5.68
2018-01-10T19:03:03.385Z,5.67
2018-01-10T19:05:31.044Z,5.61
2018-01-10T19:07:58.876Z,5.59
2018-01-10T19:10:26.443Z,5.55
2018-01-10T19:12:54.312Z,5.58
2018-01-10T19:15:21.925Z,5.57
2018-01-10T19:17:49.571Z,5.57
2018-01-10T19:20:17.146Z,5.59
2018-01-10T19:22:44.706Z,5.61
2018-01-10T19:25:12.450Z,5.71
2018-01-10T19:27:40.059Z,5.79
2018-01-10T19:30:07.610Z,5.80
2018-01-10T19:32:35.316Z,5.83
2018-01-10T19:35:03.057Z,5.85
2018-01-10T19:37:30.698Z,5.91
2018-01-10T19:39:58.510Z,5.93
2018-01-10T19:42:26.245Z,5.92
2018-01-10T19:44:53.822Z,5.81
2018-01-10T19:47:21.387Z,5.79
2018-01-10T19:49:49.885Z,5.73
2018-01-10T19:52:17.446Z,5.71
2018-01-10T19:54:45.012Z,5.66
2018-01-10T19:57:12.594Z,5.66
2018-01-10T19:59:40.320Z,5.70
2018-01-10T20:02:07.952Z,5.74
2018-01-10T20:04:35.521Z,5.80
2018-01-10T20:07:03.104Z,5.84
2018-01-10T20:09:30.678Z,5.88
2018-01-10T20:11:58.338Z,5.93
2018-01-10T20:14:26.178Z,5.76
2018-01-10T20:16:53.732Z,5.88
2018-01-10T20:19:21.294Z,5.88
2018-01-10T20:21:49.118Z,5.88
2018-01-10T20:24:16.837Z,5.89
2018-01-10T20:26:44.508Z,5.88
2018-01-10T20:29:12.059Z,5.88
2018-01-10T20:31:39.642Z,5.90
2018-01-10T20:34:07.327Z,5.97
2018-01-10T20:36:34.870Z,5.98
2018-01-10T20:39:02.523Z,5.85
2018-01-10T20:41:30.104Z,5.84
2018-01-10T20:43:57.863Z,5.85
2018-01-10T20:46:25.579Z,5.84
2018-01-10T20:48:53.160Z,5.89
2018-01-10T20:51:20.829Z,5.94
2018-01-10T20:53:48.654Z,6.03
2018-01-10T20:56:16.468Z,6.03
2018-01-10T20:58:44.048Z,6.04
2018-01-10T21:01:11.700Z,6.05
2018-01-10T21:03:39.340Z,6.12
2018-01-10T21:06:07.143Z,6.00
2018-01-10T21:08:34.962Z,5.98
2018-01-10T21:11:02.780Z,5.99
2018-01-10T21:13:30.357Z,6.03
2018-01-10T21:15:57.989Z,6.02
2018-01-10T21:18:25.740Z,6.00
2018-01-10T21:20:53.554Z,6.02
2018-01-10T21:23:21.139Z,6.00
2018-01-10T21:25:48.757Z,5.91
2018-01-10T21:28:16.581Z,5.91
2018-01-10T21:30:44.297Z,5.90
2018-01-10T21:33:11.935Z,5.87
2018-01-10T21:35:39.662Z,5.97
2018-01-10T21:38:07.226Z,5.98
2018-01-10T21:40:34.850Z,5.92
2018-01-10T21:43:02.414Z,5.93
2018-01-10T21:45:29.978Z,5.94
2018-01-10T21:47:57.751Z,5.94
2018-01-10T21:50:25.322Z,5.94
2018-01-10T21:52:52.947Z,5.87
2018-01-10T21:55:20.510Z,5.91
2018-01-10T21:57:48.323Z,5.80
2018-01-10T22:00:16.143Z,5.80
2018-01-10T22:02:43.961Z,5.74
2018-01-10T22:05:11.779Z,5.71
2018-01-10T22:07:39.379Z,5.65
2018-01-10T22:10:07.000Z,5.62
2018-01-10T22:12:34.834Z,5.64
2018-01-10T22:15:02.406Z,5.64
2018-01-10T22:17:30.122Z,5.65
2018-01-10T22:19:57.680Z,5.63
2018-01-10T22:22:25.405Z,5.65
2018-01-10T22:24:53.074Z,5.70
2018-01-10T22:27:20.632Z,5.73
2018-01-10T22:29:48.298Z,5.74
2018-01-10T22:32:16.055Z,5.77
2018-01-10T22:34:43.612Z,5.82
2018-01-10T22:37:11.203Z,5.80
2018-01-10T22:39:38.903Z,5.76
2018-01-10T22:42:06.545Z,5.75
2018-01-10T22:44:34.110Z,5.75
2018-01-10T22:47:01.657Z,5.73
2018-01-10T22:49:29.299Z,5.79
2018-01-10T22:51:57.020Z,5.82
2018-01-10T22:54:24.729Z,5.81
2018-01-10T22:56:52.456Z,5.75
2018-01-10T22:59:20.019Z,5.68
2018-01-10T23:01:47.704Z,5.66
2018-01-10T23:04:15.521Z,5.65
2018-01-10T23:06:43.133Z,5.72
2018-01-10T23:09:10.694Z,5.82
2018-01-10T23:11:38.266Z,5.83
2018-01-10T23:14:05.995Z,5.86
2018-01-10T23:16:33.701Z,5.81
2018-01-10T23:19:01.330Z,5.82
2018-01-10T23:21:28.899Z,5.78
2018-01-10T23:23:56.464Z,5.80
2018-01-10T23:26:24.273Z,5.80
2018-01-10T23:28:51.870Z,5.68
2018-01-10T23:31:19.557Z,5.68
2018-01-10T23:33:47.328Z,5.69
2018-01-10T23:36:15.045Z,5.66
2018-01-10T23:38:42.863Z,5.73
2018-01-10T23:41:10.421Z,5.79
2018-01-10T23:43:38.038Z,5.82
2018-01-10T23:46:05.604Z,5.85
2018-01-10T23:48:33.163Z,5.85
2018-01-10T23:51:00.772Z,5.84
2018-01-10T23:53:28.573Z,5.87
2018-01-10T23:55:56.194Z,5.87
2018-01-10T23:58:23.755Z,5.95
